Xianyang, China
Current Conditions -  °F | °C
As of 4:00 PM on Monday 20 Oct 2014 (Local Time) from ZLXY Reporting Station
Moderate Fog Moderate Fog  
Wind Chill: 59°   Ceiling: 5000
Heat Index: 59°   Visibility: 0.56mi
Dew Point: 57°   Wind: 2mph
Humidity: 94%   Direction: NA
Pressure: 30.06"   Gusts: NA
Location:  34.37°N, 108.7°E
Report Text: ZLXY 200800Z VRB01MPS 0900 R05L/1000N R05R/0900U FGFEW003SCT030 OVC050 15/14 Q1018 BECMG TL0940 0700 FG
Loading
Personal Weather Stations






























Interactive Weather Map
Tropical Storm Tracking
New forecast layout! Learn more

10-Day Weather Forecast

Advertisements
Track Severe Weather on mobile